createdAt,value
2019-03-28T00:00:42.931Z,102361.14
2019-03-28T00:05:48.296Z,102364.91
2019-03-28T00:10:53.838Z,102369.44
2019-03-28T00:15:59.103Z,102371.72
2019-03-28T00:21:05.069Z,102370.34
2019-03-28T00:26:10.507Z,102364.53
2019-03-28T00:31:17.026Z,102358.80
2019-03-28T00:36:22.387Z,102358.19
2019-03-28T00:41:28.035Z,102367.75
2019-03-28T00:46:33.398Z,102371.55
2019-03-28T00:51:39.564Z,102369.73
2019-03-28T00:56:47.263Z,102364.68
2019-03-28T01:01:52.242Z,102368.89
2019-03-28T01:06:57.606Z,102370.58
2019-03-28T01:12:02.974Z,102375.37
2019-03-28T01:17:09.136Z,102388.64
2019-03-28T01:22:14.496Z,102390.11
2019-03-28T01:27:19.828Z,102415.45
2019-03-28T01:32:25.300Z,102412.23
2019-03-28T01:37:30.782Z,102420.55
2019-03-28T01:42:36.217Z,102425.05
2019-03-28T01:47:41.503Z,102425.73
2019-03-28T01:52:47.503Z,102425.14
2019-03-28T01:57:53.351Z,102414.83
2019-03-28T02:02:58.612Z,102415.42
2019-03-28T02:08:04.793Z,102425.07
2019-03-28T02:13:10.031Z,102438.44
2019-03-28T02:18:16.199Z,102451.95
2019-03-28T02:23:21.477Z,102462.38
2019-03-28T02:28:26.858Z,102464.84
2019-03-28T02:33:32.109Z,102478.42
2019-03-28T02:38:37.257Z,102471.25
2019-03-28T02:43:43.003Z,102455.89
2019-03-28T02:48:49.393Z,102464.23
2019-03-28T02:53:54.625Z,102471.55
2019-03-28T02:58:59.943Z,102463.06
2019-03-28T03:04:05.130Z,102466.23
2019-03-28T03:09:10.543Z,102481.72
2019-03-28T03:14:15.763Z,102483.62
2019-03-28T03:19:20.928Z,102502.27
2019-03-28T03:24:26.288Z,102508.28
2019-03-28T03:29:31.433Z,102515.98
2019-03-28T03:34:36.694Z,102526.87
2019-03-28T03:39:41.896Z,102519.96
2019-03-28T03:44:47.210Z,102519.66
2019-03-28T03:49:52.693Z,102530.66
2019-03-28T03:54:57.919Z,102522.67
2019-03-28T04:00:09.457Z,102525.95
2019-03-28T04:05:16.010Z,102536.94
2019-03-28T04:10:21.475Z,102547.89
2019-03-28T04:15:26.977Z,102539.78
2019-03-28T04:20:32.267Z,102547.25
2019-03-28T04:25:37.624Z,102547.73
2019-03-28T04:30:43.280Z,102555.20
2019-03-28T04:35:48.993Z,102567.73
2019-03-28T04:40:54.655Z,102558.96
2019-03-28T04:46:00.406Z,102569.39
2019-03-28T04:51:05.987Z,102576.59
2019-03-28T04:56:12.394Z,102583.91
2019-03-28T05:01:17.727Z,102584.91
2019-03-28T05:06:23.083Z,102587.70
2019-03-28T05:11:28.579Z,102595.64
2019-03-28T05:16:33.951Z,102598.36
2019-03-28T05:21:39.646Z,102603.51
2019-03-28T05:26:45.949Z,102599.56
2019-03-28T05:31:51.532Z,102610.70
2019-03-28T05:36:56.706Z,102624.28
2019-03-28T05:42:02.027Z,102631.62
2019-03-28T05:47:07.488Z,102632.80
2019-03-28T05:52:12.981Z,102644.59
2019-03-28T05:57:18.551Z,102650.11
2019-03-28T06:02:24.367Z,102660.58
2019-03-28T06:07:30.670Z,102665.53
2019-03-28T06:12:36.025Z,102679.58
2019-03-28T06:17:42.518Z,102679.87
2019-03-28T06:22:47.877Z,102698.30
2019-03-28T06:27:53.027Z,102697.91
2019-03-28T06:32:59.000Z,102698.04
2019-03-28T06:38:04.672Z,102703.40
2019-03-28T06:43:09.769Z,102713.03
2019-03-28T06:48:15.079Z,102725.34
2019-03-28T06:53:20.229Z,102723.52
2019-03-28T06:58:25.360Z,102729.02
2019-03-28T07:03:49.943Z,102734.75
2019-03-28T07:08:55.279Z,102760.81
2019-03-28T07:14:02.430Z,102774.12
2019-03-28T07:19:08.349Z,102766.70
2019-03-28T07:24:13.565Z,102771.77
2019-03-28T07:29:19.136Z,102773.14
2019-03-28T07:34:24.530Z,102772.28
2019-03-28T07:39:29.878Z,102774.65
2019-03-28T07:44:37.513Z,102774.08
2019-03-28T07:49:42.530Z,102785.59
2019-03-28T07:54:48.957Z,102779.20
2019-03-28T08:00:04.175Z,102779.69
2019-03-28T08:05:02.119Z,102764.67
2019-03-28T08:10:09.982Z,102781.89
2019-03-28T08:15:15.724Z,102788.14
2019-03-28T08:20:21.232Z,102801.79
2019-03-28T08:25:26.797Z,102827.33
2019-03-28T08:30:36.847Z,102826.26
2019-03-28T08:35:42.330Z,102825.54
2019-03-28T08:40:47.793Z,102829.00
2019-03-28T08:45:53.029Z,102841.02
2019-03-28T08:50:58.514Z,102828.38
2019-03-28T08:56:04.510Z,102839.02
2019-03-28T09:01:10.022Z,102841.63
2019-03-28T09:06:17.085Z,102831.50
2019-03-28T09:11:22.302Z,102833.02
2019-03-28T09:16:27.789Z,102829.02
2019-03-28T09:21:33.216Z,102827.55
2019-03-28T09:26:39.698Z,102817.66
2019-03-28T09:31:45.051Z,102811.10
2019-03-28T09:36:50.431Z,102803.44
2019-03-28T09:41:56.294Z,102800.73
2019-03-28T09:47:01.768Z,102800.14
2019-03-28T09:52:07.207Z,102777.84
2019-03-28T09:57:12.469Z,102780.45
2019-03-28T10:02:17.823Z,102779.06
2019-03-28T10:07:23.088Z,102768.56
2019-03-28T10:12:28.298Z,102764.06
2019-03-28T10:17:33.552Z,102762.75
2019-03-28T10:22:38.862Z,102776.42
2019-03-28T10:27:44.205Z,102773.55
2019-03-28T10:32:49.411Z,102769.76
2019-03-28T10:37:54.531Z,102777.61
2019-03-28T10:42:59.768Z,102786.23
2019-03-28T10:48:05.259Z,102783.34
2019-03-28T10:53:10.732Z,102783.09
2019-03-28T10:58:19.161Z,102793.78
2019-03-28T11:03:23.251Z,102810.97
2019-03-28T11:08:28.616Z,102809.89
2019-03-28T11:13:34.785Z,102813.30
2019-03-28T11:18:40.054Z,102824.92
2019-03-28T11:23:46.645Z,102830.25
2019-03-28T11:28:52.194Z,102839.98
2019-03-28T11:33:57.777Z,102833.89
2019-03-28T11:39:04.605Z,102847.95
2019-03-28T11:44:09.708Z,102834.85
2019-03-28T11:49:15.067Z,102836.10
2019-03-28T11:54:20.429Z,102846.73
2019-03-28T11:59:26.716Z,102861.22
2019-03-28T12:04:32.013Z,102864.13
2019-03-28T12:09:38.015Z,102865.57
2019-03-28T12:14:43.305Z,102871.70
2019-03-28T12:19:48.668Z,102878.88
2019-03-28T12:24:54.978Z,102870.63
2019-03-28T12:30:00.326Z,102870.08
2019-03-28T12:35:07.092Z,102877.37
2019-03-28T12:40:13.545Z,102870.55
2019-03-28T12:45:18.926Z,102865.55
2019-03-28T12:50:24.196Z,102853.96
2019-03-28T12:55:29.585Z,102858.10
2019-03-28T13:00:36.541Z,102858.89
2019-03-28T13:05:42.004Z,102849.52
2019-03-28T13:10:47.497Z,102859.69
2019-03-28T13:15:52.692Z,102869.44
2019-03-28T13:21:12.379Z,102865.52
2019-03-28T13:26:05.401Z,102865.59
2019-03-28T13:31:10.826Z,102865.64
2019-03-28T13:36:16.400Z,102852.33
2019-03-28T13:41:21.771Z,102847.88
2019-03-28T13:46:27.229Z,102833.22
2019-03-28T13:51:32.695Z,102844.28
2019-03-28T13:56:38.602Z,102846.46
2019-03-28T14:01:44.040Z,102842.80
2019-03-28T14:06:49.418Z,102843.25
2019-03-28T14:11:54.741Z,102833.26
2019-03-28T14:17:00.201Z,102833.26
2019-03-28T14:22:05.762Z,102834.34
2019-03-28T14:27:11.319Z,102835.83
2019-03-28T14:32:17.004Z,102832.68
2019-03-28T14:37:22.774Z,102831.69
2019-03-28T14:42:28.238Z,102827.84
2019-03-28T14:47:33.595Z,102821.66
2019-03-28T14:52:39.247Z,102833.10
2019-03-28T14:57:44.632Z,102837.40
2019-03-28T15:02:49.861Z,102834.48
2019-03-28T15:07:55.120Z,102834.77
2019-03-28T15:13:00.386Z,102827.93
2019-03-28T15:18:05.751Z,102813.92
2019-03-28T15:23:11.453Z,102820.08
2019-03-28T15:28:16.670Z,102824.77
2019-03-28T15:33:21.920Z,102829.29
2019-03-28T15:38:27.272Z,102837.27
2019-03-28T15:43:32.848Z,102837.27
2019-03-28T15:48:38.959Z,102837.97
2019-03-28T15:53:44.454Z,102839.50
2019-03-28T15:58:50.170Z,102835.38
2019-03-28T16:03:55.814Z,102820.75
2019-03-28T16:09:01.368Z,102821.85
2019-03-28T16:14:07.455Z,102827.66
2019-03-28T16:19:12.838Z,102828.95
2019-03-28T16:24:18.233Z,102836.06
2019-03-28T16:29:23.533Z,102832.95
2019-03-28T16:34:28.886Z,102833.64
2019-03-28T16:39:34.356Z,102840.20
2019-03-28T16:44:40.947Z,102849.73
2019-03-28T16:49:46.302Z,102841.69
2019-03-28T16:54:51.618Z,102845.58
2019-03-28T16:59:57.265Z,102859.56
2019-03-28T17:05:02.805Z,102855.16
2019-03-28T17:10:09.170Z,102866.13
2019-03-28T17:15:14.549Z,102869.28
2019-03-28T17:20:19.953Z,102884.53
2019-03-28T17:25:25.334Z,102889.09
2019-03-28T17:30:30.694Z,102881.98
2019-03-28T17:35:35.961Z,102884.39
2019-03-28T17:40:41.313Z,102877.98
2019-03-28T17:45:46.785Z,102884.30
2019-03-28T17:50:52.160Z,102887.36
2019-03-28T17:55:57.692Z,102888.93
2019-03-28T18:01:03.455Z,102898.63
2019-03-28T18:06:09.021Z,102899.34
2019-03-28T18:11:14.394Z,102907.52
2019-03-28T18:16:19.758Z,102898.28
2019-03-28T18:21:25.112Z,102905.34
2019-03-28T18:26:30.547Z,102914.12
2019-03-28T18:31:49.929Z,102909.84
2019-03-28T18:36:47.308Z,102919.31
2019-03-28T18:41:51.981Z,102926.38
2019-03-28T18:46:57.325Z,102921.96
2019-03-28T18:52:02.784Z,102923.83
2019-03-28T18:57:08.353Z,102915.99
2019-03-28T19:02:13.568Z,102917.73
2019-03-28T19:07:19.834Z,102913.59
2019-03-28T19:12:25.139Z,102913.40
2019-03-28T19:17:30.518Z,102923.55
2019-03-28T19:22:36.062Z,102923.11
2019-03-28T19:27:41.428Z,102915.23
2019-03-28T19:32:46.795Z,102916.19
2019-03-28T19:37:52.247Z,102909.41
2019-03-28T19:42:57.490Z,102908.16
2019-03-28T19:48:03.051Z,102905.66
2019-03-28T19:53:11.603Z,102892.59
2019-03-28T19:58:15.842Z,102892.59
2019-03-28T20:03:23.196Z,102885.45
2019-03-28T20:08:28.481Z,102878.27
2019-03-28T20:13:33.990Z,102877.37
2019-03-28T20:18:39.222Z,102883.92
2019-03-28T20:23:44.675Z,102876.33
2019-03-28T20:28:50.010Z,102875.42
2019-03-28T20:33:55.403Z,102872.92
2019-03-28T20:39:04.108Z,102878.59
2019-03-28T20:44:11.436Z,102876.46
2019-03-28T20:49:15.255Z,102875.91
2019-03-28T20:54:20.705Z,102861.39
2019-03-28T20:59:25.975Z,102850.39
2019-03-28T21:04:31.950Z,102847.50
2019-03-28T21:09:37.620Z,102826.31
2019-03-28T21:14:42.772Z,102830.59
2019-03-28T21:19:48.561Z,102846.78
2019-03-28T21:24:53.751Z,102843.41
2019-03-28T21:29:58.950Z,102843.02
2019-03-28T21:35:07.382Z,102849.27
2019-03-28T21:40:13.243Z,102832.50
2019-03-28T21:45:18.717Z,102832.88
2019-03-28T21:50:24.174Z,102872.06
2019-03-28T21:55:29.557Z,102876.26
2019-03-28T22:00:36.323Z,102867.69
2019-03-28T22:05:41.579Z,102851.31
2019-03-28T22:10:46.965Z,102853.87
2019-03-28T22:15:52.290Z,102858.66
2019-03-28T22:20:58.621Z,102850.18
2019-03-28T22:26:03.892Z,102866.66
2019-03-28T22:31:09.175Z,102854.72
2019-03-28T22:36:14.629Z,102867.46
2019-03-28T22:41:23.061Z,102865.67
2019-03-28T22:46:29.564Z,102866.38
2019-03-28T22:51:34.826Z,102862.85
2019-03-28T22:56:40.191Z,102860.67
2019-03-28T23:01:45.686Z,102841.70
2019-03-28T23:06:51.448Z,102845.48
2019-03-28T23:11:57.218Z,102827.01
2019-03-28T23:17:02.941Z,102822.63
2019-03-28T23:22:08.860Z,102831.41
2019-03-28T23:27:14.586Z,102821.00
2019-03-28T23:32:20.248Z,102834.72
2019-03-28T23:37:26.807Z,102821.41
2019-03-28T23:42:32.604Z,102829.00
2019-03-28T23:47:38.169Z,102827.20
2019-03-28T23:52:43.687Z,102817.52
2019-03-28T23:57:49.417Z,102821.82
